^^
Datos históricos de la estación: Murcia-Puente Tocinos
Diario Informe para Agosto 10, 2019 Unidades:  Métrico    Inglés   Ambas
Diario Semanal Mensual Anual Configurable
  Máximo: Mínimo: Media:
Temperatura: 38.1 °C 27.4 °C 32 °C
Punto de rocio: 22.1 °C 10.6 °C 16.8 °C
Humedad: 65% 26% 41%
Velocidad viento: 21.7km/h 0.0km/h 10.5km/h
Racha viento: 33.5km/h - -
Viento- - SSE
Presión: 1014.0 hPa 1011.1 hPa -
Precipitación: 0.0 mm    
Historical Graphs
 
 
Tabla de datos para Agosto 10, 2019
Hora Temperatura Punto de rocio Presión Viento Velocidad viento Racha viento Humedad Intensidad lluvia(por hora) Nubes
00:00 29.4 °C 22.1 °C 1011.1 hPa NNE 3.2 km/h 7.4 km/h 65% 0.0 mm CLR
00:05 29.4 °C 22.1 °C 1011.3 hPa NNE 3.2 km/h 3.7 km/h 65% 0.0 mm CLR
00:10 29.4 °C 22.1 °C 1011.3 hPa NNW 2.3 km/h 7.4 km/h 65% 0.0 mm CLR
00:15 29.4 °C 21.9 °C 1011.3 hPa NW 2.3 km/h 5.0 km/h 64% 0.0 mm CLR
00:20 29.3 °C 21.8 °C 1011.3 hPa NW 3.2 km/h   64% 0.0 mm CLR
00:25 29.3 °C 21.8 °C 1011.3 hPa NW 3.2 km/h 5.6 km/h 64% 0.0 mm CLR
00:30 29.3 °C 21.8 °C 1011.3 hPa NNW 2.9 km/h 3.7 km/h 64% 0.0 mm CLR
00:35 29.2 °C 21.2 °C 1011.4 hPa NW 2.9 km/h 5.6 km/h 62% 0.0 mm CLR
00:40 29.1 °C 20.8 °C 1011.4 hPa NW 3.2 km/h 3.7 km/h 61% 0.0 mm CLR
00:45 29.1 °C 20.6 °C 1011.4 hPa West 3.2 km/h 3.7 km/h 60% 0.0 mm CLR
00:50 29.0 °C 20.4 °C 1011.5 hPa NW 2.9 km/h   60% 0.0 mm CLR
00:55 28.9 °C 20.3 °C 1011.5 hPa NW 2.9 km/h   60% 0.0 mm CLR
01:00 28.9 °C 21.2 °C 1011.5 hPa Calm   6.9 km/h 63% 0.0 mm CLR
01:05 28.9 °C 21.4 °C 1011.5 hPa Calm   3.7 km/h 64% 0.0 mm CLR
01:10 28.9 °C 21.7 °C 1011.5 hPa SSE 2.9 km/h 4.7 km/h 65% 0.0 mm CLR
01:15 28.9 °C 21.7 °C 1011.5 hPa SSE 2.9 km/h 1.9 km/h 65% 0.0 mm CLR
01:20 28.8 °C 21.6 °C 1011.5 hPa SSE 2.3 km/h 5.6 km/h 65% 0.0 mm CLR
01:25 28.8 °C 20.8 °C 1011.5 hPa SW 2.3 km/h 5.6 km/h 62% 0.0 mm CLR
01:30 28.8 °C 20.6 °C 1011.5 hPa SW 2.9 km/h 3.7 km/h 61% 0.0 mm CLR
01:35 28.8 °C 20.6 °C 1011.6 hPa West 2.9 km/h 7.4 km/h 61% 0.0 mm CLR
01:40 28.7 °C 20.4 °C 1011.6 hPa West 3.2 km/h 9.3 km/h 61% 0.0 mm CLR
01:45 28.7 °C 20.4 °C 1011.6 hPa WSW 3.2 km/h 7.4 km/h 61% 0.0 mm CLR
01:50 28.8 °C 20.3 °C 1011.4 hPa West 3.9 km/h 5.6 km/h 60% 0.0 mm CLR
01:55 28.8 °C 20.3 °C 1011.4 hPa SW 3.9 km/h 5.6 km/h 60% 0.0 mm CLR
02:00 28.9 °C 20.1 °C 1011.4 hPa SW 2.9 km/h 3.9 km/h 59% 0.0 mm CLR
02:05 28.9 °C 20.1 °C 1011.4 hPa SW 2.9 km/h   59% 0.0 mm CLR
02:10 28.9 °C 19.2 °C 1011.4 hPa Calm   6.9 km/h 56% 0.0 mm CLR
02:15 29.0 °C 17.5 °C 1011.4 hPa Calm   7.4 km/h 50% 0.0 mm CLR
02:20 29.1 °C 17.3 °C 1011.5 hPa SSE 5.8 km/h 7.4 km/h 49% 0.0 mm CLR
02:25 29.0 °C 16.6 °C 1011.5 hPa South 5.8 km/h 11.1 km/h 47% 0.0 mm CLR
02:30 29.1 °C 16.3 °C 1011.5 hPa SW 6.4 km/h 11.1 km/h 46% 0.0 mm CLR
02:35 29.1 °C 15.9 °C 1011.5 hPa SSW 6.4 km/h 9.3 km/h 45% 0.0 mm CLR
02:40 29.2 °C 15.7 °C 1011.5 hPa SW 6.4 km/h 9.3 km/h 44% 0.0 mm CLR
02:45 29.2 °C 15.7 °C 1011.5 hPa WSW 6.4 km/h 7.4 km/h 44% 0.0 mm CLR
02:50 29.2 °C 15.7 °C 1011.4 hPa West 5.0 km/h 5.6 km/h 44% 0.0 mm CLR
02:55 29.2 °C 16.1 °C 1011.4 hPa West 5.0 km/h 7.4 km/h 45% 0.0 mm CLR
03:00 29.1 °C 15.9 °C 1011.4 hPa West 3.9 km/h 3.9 km/h 45% 0.0 mm CLR
03:05 28.9 °C 15.8 °C 1011.4 hPa West 3.9 km/h 3.7 km/h 45% 0.0 mm CLR
03:10 28.8 °C 16.4 °C 1011.4 hPa ESE 3.2 km/h 9.3 km/h 47% 0.0 mm CLR
03:15 28.4 °C 16.3 °C 1011.4 hPa ESE 3.2 km/h 5.6 km/h 48% 0.0 mm CLR
03:20 28.2 °C 16.2 °C 1011.4 hPa ESE 3.9 km/h 3.7 km/h 48% 0.0 mm CLR
03:25 28.1 °C 16.1 °C 1011.4 hPa ESE 3.9 km/h 5.6 km/h 48% 0.0 mm CLR
03:30 28.2 °C 16.4 °C 1011.4 hPa ESE 2.9 km/h 3.7 km/h 49% 0.0 mm CLR
03:35 28.1 °C 16.4 °C 1011.4 hPa ESE 2.9 km/h 3.7 km/h 49% 0.0 mm CLR
03:40 28.0 °C 15.9 °C 1011.4 hPa ESE 2.9 km/h 3.7 km/h 48% 0.0 mm CLR
03:45 27.9 °C 16.5 °C 1011.4 hPa ESE 2.9 km/h   50% 0.0 mm CLR
03:50 27.8 °C 16.7 °C 1011.6 hPa ESE 2.3 km/h 5.6 km/h 51% 0.0 mm CLR
03:55 27.7 °C 16.0 °C 1011.6 hPa ESE 2.3 km/h 5.6 km/h 49% 0.0 mm CLR
04:00 27.7 °C 16.3 °C 1011.6 hPa SE 2.9 km/h 7.4 km/h 50% 0.0 mm CLR
04:05 27.7 °C 16.0 °C 1011.5 hPa SSE 2.9 km/h 7.4 km/h 49% 0.0 mm CLR
04:10 27.8 °C 16.1 °C 1011.5 hPa SSE 5.0 km/h 7.4 km/h 49% 0.0 mm CLR
04:15 27.8 °C 16.1 °C 1011.5 hPa South 5.0 km/h 7.4 km/h 49% 0.0 mm CLR
04:20 27.7 °C 16.0 °C 1011.6 hPa SSE 4.7 km/h 5.6 km/h 49% 0.0 mm CLR
04:25 27.6 °C 15.9 °C 1011.6 hPa South 4.7 km/h 7.4 km/h 49% 0.0 mm CLR
04:30 27.4 °C 15.7 °C 1011.6 hPa SSE 4.7 km/h 5.6 km/h 49% 0.0 mm CLR
04:35 27.5 °C 15.8 °C 1011.5 hPa SSW 4.7 km/h 9.3 km/h 49% 0.0 mm CLR
04:40 27.7 °C 15.7 °C 1011.5 hPa SW 6.4 km/h 11.1 km/h 48% 0.0 mm CLR
04:45 28.0 °C 15.6 °C 1011.5 hPa SW 6.4 km/h 9.3 km/h 47% 0.0 mm CLR
04:50 28.2 °C 15.5 °C 1011.5 hPa West 6.9 km/h 9.3 km/h 46% 0.0 mm CLR
04:55 28.3 °C 15.2 °C 1011.5 hPa SW 6.9 km/h 8.4 km/h 45% 0.0 mm CLR
05:00 28.4 °C 14.9 °C 1011.5 hPa WNW 6.4 km/h 18.5 km/h 44% 0.0 mm CLR
05:05 28.6 °C 14.1 °C 1011.5 hPa West 6.4 km/h 9.3 km/h 41% 0.0 mm CLR
05:10 28.9 °C 13.9 °C 1011.5 hPa SW 8.4 km/h 11.1 km/h 40% 0.0 mm CLR
05:15 29.0 °C 13.7 °C 1011.5 hPa SW 8.4 km/h 9.3 km/h 39% 0.0 mm CLR
05:20 29.0 °C 13.2 °C 1011.6 hPa WNW 6.9 km/h 9.3 km/h 38% 0.0 mm CLR
05:25 29.1 °C 13.3 °C 1011.6 hPa SSW 6.9 km/h 5.6 km/h 38% 0.0 mm CLR
05:30 29.1 °C 13.3 °C 1011.6 hPa SW 3.9 km/h 3.9 km/h 38% 0.0 mm CLR
05:35 29.0 °C 13.7 °C 1011.6 hPa West 3.9 km/h 1.9 km/h 39% 0.0 mm CLR
05:40 28.9 °C 13.6 °C 1011.6 hPa WSW 2.9 km/h 5.6 km/h 39% 0.0 mm CLR
05:45 28.7 °C 13.0 °C 1011.6 hPa WSW 2.9 km/h 7.4 km/h 38% 0.0 mm CLR
05:50 28.6 °C 12.9 °C 1011.6 hPa SW 3.9 km/h 7.4 km/h 38% 0.0 mm CLR
05:55 28.6 °C 12.5 °C 1011.6 hPa SW 3.9 km/h 7.4 km/h 37% 0.0 mm CLR
06:00 28.7 °C 12.2 °C 1011.6 hPa SW 5.8 km/h 11.1 km/h 36% 0.0 mm CLR
06:05 28.9 °C 11.4 °C 1011.8 hPa SSW 5.8 km/h 9.3 km/h 34% 0.0 mm CLR
06:10 29.1 °C 11.2 °C 1011.8 hPa SW 7.6 km/h 14.8 km/h 33% 0.0 mm CLR
06:15 29.3 °C 10.9 °C 1011.8 hPa SSW 7.6 km/h 11.9 km/h 32% 0.0 mm CLR
06:20 29.4 °C 11.0 °C 1011.8 hPa SSW 8.4 km/h 11.1 km/h 32% 0.0 mm CLR
06:25 29.5 °C 10.6 °C 1011.8 hPa SW 8.4 km/h 18.5 km/h 31% 0.0 mm CLR
06:30 29.6 °C 10.7 °C 1011.8 hPa SW 10.0 km/h 14.8 km/h 31% 0.0 mm CLR
06:35 29.6 °C 11.2 °C 1011.9 hPa SW 10.0 km/h 12.2 km/h 32% 0.0 mm CLR
06:40 29.6 °C 10.7 °C 1011.9 hPa WSW 9.5 km/h 13.0 km/h 31% 0.0 mm CLR
06:45 29.5 °C 11.1 °C 1011.9 hPa SW 9.5 km/h 11.1 km/h 32% 0.0 mm CLR
06:50 29.4 °C 11.0 °C 1012.1 hPa SSW 8.7 km/h 14.8 km/h 32% 0.0 mm CLR
06:55 29.5 °C 10.6 °C 1012.1 hPa SSW 8.7 km/h 13.0 km/h 31% 0.0 mm CLR
07:00 29.4 °C 11.0 °C 1012.1 hPa SW 10.0 km/h 14.8 km/h 32% 0.0 mm CLR
07:05 29.4 °C 11.0 °C 1012.2 hPa SSW 10.0 km/h 18.5 km/h 32% 0.0 mm CLR
07:10 29.4 °C 11.0 °C 1012.2 hPa SSW 11.1 km/h 14.8 km/h 32% 0.0 mm CLR
07:15 29.5 °C 11.1 °C 1012.2 hPa South 11.1 km/h 14.8 km/h 32% 0.0 mm CLR
07:20 29.6 °C 11.2 °C 1012.6 hPa SSW 10.3 km/h 14.8 km/h 32% 0.0 mm CLR
07:25 29.6 °C 11.6 °C 1012.6 hPa SSW 10.3 km/h 14.8 km/h 33% 0.0 mm CLR
07:30 29.7 °C 11.7 °C 1012.6 hPa SW 11.1 km/h 14.8 km/h 33% 0.0 mm CLR
07:35 29.7 °C 11.7 °C 1012.7 hPa South 11.1 km/h 18.5 km/h 33% 0.0 mm CLR
07:40 29.7 °C 11.7 °C 1012.7 hPa SSW 12.2 km/h 16.7 km/h 33% 0.0 mm CLR
07:45 29.6 °C 12.1 °C 1012.7 hPa WSW 12.2 km/h 16.7 km/h 34% 0.0 mm CLR
07:50 29.6 °C 12.1 °C 1012.9 hPa SSW 13.0 km/h 18.5 km/h 34% 0.0 mm CLR
07:55 29.6 °C 12.1 °C 1012.9 hPa SW 13.0 km/h 16.7 km/h 34% 0.0 mm CLR
08:00 29.6 °C 12.1 °C 1012.9 hPa SW 14.0 km/h 18.5 km/h 34% 0.0 mm CLR
08:05 29.7 °C 12.6 °C 1013.1 hPa SW 14.0 km/h 19.8 km/h 35% 0.0 mm CLR
08:10 29.7 °C 12.6 °C 1013.1 hPa SSW 12.2 km/h 18.5 km/h 35% 0.0 mm CLR
08:15 29.8 °C 12.7 °C 1013.1 hPa SSW 12.2 km/h 20.4 km/h 35% 0.0 mm CLR
08:20 29.8 °C 12.7 °C 1013.2 hPa SW 13.7 km/h 20.4 km/h 35% 0.0 mm CLR
08:25 29.8 °C 13.1 °C 1013.2 hPa SSW 13.7 km/h 18.5 km/h 36% 0.0 mm CLR
08:30 29.8 °C 13.1 °C 1013.2 hPa SW 14.0 km/h 22.2 km/h 36% 0.0 mm CLR
08:35 29.9 °C 13.6 °C 1013.4 hPa WSW 14.0 km/h 18.3 km/h 37% 0.0 mm CLR
08:40 29.9 °C 13.6 °C 1013.4 hPa South 12.2 km/h 16.7 km/h 37% 0.0 mm CLR
08:45 30.0 °C 13.7 °C 1013.4 hPa SW 12.2 km/h 16.7 km/h 37% 0.0 mm CLR
08:50 30.1 °C 14.2 °C 1013.5 hPa South 11.1 km/h 18.5 km/h 38% 0.0 mm CLR
08:55 30.2 °C 14.3 °C 1013.5 hPa SW 11.1 km/h 18.5 km/h 38% 0.0 mm CLR
09:00 30.3 °C 14.4 °C 1013.5 hPa South 11.1 km/h 11.1 km/h 38% 0.0 mm CLR
09:05 30.4 °C 14.5 °C 1013.6 hPa WSW 11.1 km/h 13.7 km/h 38% 0.0 mm CLR
09:10 30.6 °C 15.1 °C 1013.6 hPa SSW 8.4 km/h 13.0 km/h 39% 0.0 mm CLR
09:15 30.7 °C 14.8 °C 1013.6 hPa SSW 8.4 km/h 14.8 km/h 38% 0.0 mm CLR
09:20 30.8 °C 14.8 °C 1013.7 hPa SSW 8.7 km/h 14.8 km/h 38% 0.0 mm CLR
09:25 30.9 °C 14.9 °C 1013.7 hPa SW 8.7 km/h 16.7 km/h 38% 0.0 mm CLR
09:30 31.0 °C 15.0 °C 1013.7 hPa SW 9.5 km/h 18.5 km/h 38% 0.0 mm CLR
09:35 31.1 °C 15.1 °C 1013.7 hPa SSW 9.5 km/h 14.8 km/h 38% 0.0 mm CLR
09:40 31.2 °C 15.2 °C 1013.7 hPa SW 9.5 km/h 13.0 km/h 38% 0.0 mm CLR
09:45 31.3 °C 15.3 °C 1013.7 hPa SSW 9.5 km/h 13.0 km/h 38% 0.0 mm CLR
09:50 31.4 °C 15.4 °C 1013.8 hPa SSW 8.4 km/h 13.0 km/h 38% 0.0 mm CLR
09:55 31.6 °C 15.6 °C 1013.8 hPa SSW 8.4 km/h 16.7 km/h 38% 0.0 mm CLR
10:00 31.7 °C 15.6 °C 1013.8 hPa SW 9.5 km/h 11.1 km/h 38% 0.0 mm CLR
10:05 31.8 °C 16.1 °C 1013.9 hPa SW 9.5 km/h 14.8 km/h 39% 0.0 mm CLR
10:10 32.1 °C 16.4 °C 1013.9 hPa SW 9.5 km/h 11.1 km/h 39% 0.0 mm CLR
10:15 32.2 °C 16.5 °C 1013.9 hPa WSW 9.5 km/h 15.6 km/h 39% 0.0 mm CLR
10:20 32.4 °C 16.7 °C 1013.8 hPa SW 9.5 km/h 14.8 km/h 39% 0.0 mm CLR
10:25 32.6 °C 16.8 °C 1013.8 hPa WSW 9.5 km/h 16.7 km/h 39% 0.0 mm CLR
10:30 32.7 °C 17.3 °C 1013.8 hPa WSW 10.3 km/h 20.4 km/h 40% 0.0 mm CLR
10:35 32.9 °C 17.5 °C 1013.9 hPa SSW 10.3 km/h 15.6 km/h 40% 0.0 mm CLR
10:40 33.0 °C 17.6 °C 1013.9 hPa West 11.1 km/h 16.7 km/h 40% 0.0 mm CLR
10:45 33.0 °C 17.6 °C 1013.9 hPa WSW 11.1 km/h 16.1 km/h 40% 0.0 mm CLR
10:50 33.1 °C 17.7 °C 1014.0 hPa SW 11.9 km/h 13.0 km/h 40% 0.0 mm CLR
10:55 33.2 °C 17.8 °C 1014.0 hPa West 11.9 km/h 20.4 km/h 40% 0.0 mm CLR
11:00 33.4 °C 17.6 °C 1014.0 hPa West 12.2 km/h 18.5 km/h 39% 0.0 mm CLR
11:05 33.6 °C 17.3 °C 1013.9 hPa WSW 12.2 km/h 14.8 km/h 38% 0.0 mm CLR
11:10 33.7 °C 17.4 °C 1013.9 hPa WSW 10.0 km/h 13.7 km/h 38% 0.0 mm CLR
11:15 33.9 °C 17.6 °C 1013.9 hPa SW 10.0 km/h 20.4 km/h 38% 0.0 mm CLR
11:20 33.8 °C 17.5 °C 1013.9 hPa SW 11.9 km/h 18.5 km/h 38% 0.0 mm CLR
11:25 34.0 °C 17.7 °C 1013.9 hPa WSW 11.9 km/h 18.5 km/h 38% 0.0 mm CLR
11:30 34.0 °C 17.7 °C 1013.9 hPa West 11.1 km/h 16.7 km/h 38% 0.0 mm CLR
11:35 34.2 °C 17.4 °C 1013.8 hPa WNW 11.1 km/h 13.0 km/h 37% 0.0 mm CLR
11:40 34.3 °C 17.1 °C 1013.8 hPa WSW 10.3 km/h 18.0 km/h 36% 0.0 mm CLR
11:45 34.4 °C 17.2 °C 1013.8 hPa WSW 10.3 km/h 16.1 km/h 36% 0.0 mm CLR
11:50 34.4 °C 17.2 °C 1013.8 hPa WSW 12.2 km/h 16.7 km/h 36% 0.0 mm CLR
11:55 34.7 °C 17.4 °C 1013.8 hPa West 12.2 km/h 13.0 km/h 36% 0.0 mm CLR
12:00 34.8 °C 17.1 °C 1013.8 hPa WNW 8.7 km/h 16.7 km/h 35% 0.0 mm CLR
12:05 35.0 °C 17.3 °C 1013.7 hPa West 8.7 km/h 22.2 km/h 35% 0.0 mm CLR
12:10 35.1 °C 16.9 °C 1013.7 hPa WSW 10.3 km/h 14.8 km/h 34% 0.0 mm CLR
12:15 35.2 °C 16.9 °C 1013.7 hPa WNW 10.3 km/h 14.8 km/h 34% 0.0 mm CLR
12:20 35.2 °C 16.9 °C 1013.5 hPa NW 9.5 km/h 13.0 km/h 34% 0.0 mm CLR
12:25 35.4 °C 16.7 °C 1013.5 hPa WSW 9.5 km/h 14.0 km/h 33% 0.0 mm CLR
12:30 35.6 °C 16.8 °C 1013.5 hPa WSW 9.5 km/h 22.2 km/h 33% 0.0 mm CLR
12:35 35.7 °C 16.4 °C 1013.6 hPa WSW 9.5 km/h 20.4 km/h 32% 0.0 mm CLR
12:40 35.6 °C 16.4 °C 1013.6 hPa West 11.9 km/h 18.5 km/h 32% 0.0 mm CLR
12:45 35.6 °C 16.8 °C 1013.6 hPa SSW 11.9 km/h 9.3 km/h 33% 0.0 mm CLR
12:50 35.8 °C 16.6 °C 1013.3 hPa ESE 9.5 km/h 14.8 km/h 32% 0.0 mm CLR
12:55 36.0 °C 15.7 °C 1013.3 hPa SSW 9.5 km/h 16.7 km/h 30% 0.0 mm CLR
13:00 36.0 °C 15.2 °C 1013.3 hPa SW 10.0 km/h 13.0 km/h 29% 0.0 mm CLR
13:05 36.2 °C 15.3 °C 1013.2 hPa SW 10.0 km/h 13.0 km/h 29% 0.0 mm CLR
13:10 36.3 °C 15.4 °C 1013.2 hPa SW 7.6 km/h 9.3 km/h 29% 0.0 mm CLR
13:15 36.4 °C 14.9 °C 1013.2 hPa WSW 7.6 km/h 11.1 km/h 28% 0.0 mm CLR
13:20 36.6 °C 14.6 °C 1013.0 hPa South 6.4 km/h 11.1 km/h 27% 0.0 mm CLR
13:25 36.7 °C 15.2 °C 1013.0 hPa ESE 6.4 km/h 7.4 km/h 28% 0.0 mm CLR
13:30 36.9 °C 15.4 °C 1013.0 hPa NNW 5.0 km/h 9.3 km/h 28% 0.0 mm CLR
13:35 37.1 °C 15.0 °C 1013.1 hPa NNW 5.0 km/h 14.8 km/h 27% 0.0 mm CLR
13:40 37.1 °C 14.4 °C 1013.1 hPa NNW 6.9 km/h 13.0 km/h 26% 0.0 mm CLR
13:45 37.2 °C 14.5 °C 1013.1 hPa North 6.9 km/h 8.4 km/h 26% 0.0 mm CLR
13:50 37.2 °C 14.5 °C 1012.9 hPa ESE 6.9 km/h 7.4 km/h 26% 0.0 mm CLR
13:55 37.3 °C 14.6 °C 1012.9 hPa SSW 6.9 km/h 7.4 km/h 26% 0.0 mm CLR
14:00 37.6 °C 14.8 °C 1012.9 hPa NE 5.8 km/h 12.2 km/h 26% 0.0 mm CLR
14:05 37.6 °C 14.8 °C 1012.7 hPa NE 5.8 km/h 14.8 km/h 26% 0.0 mm CLR
14:10 37.6 °C 14.8 °C 1012.7 hPa NNW 8.7 km/h 7.6 km/h 26% 0.0 mm CLR
14:15 37.8 °C 15.0 °C 1012.7 hPa NW 8.7 km/h 4.7 km/h 26% 0.0 mm CLR
14:20 38.1 °C 16.4 °C 1012.5 hPa NE 5.8 km/h 20.4 km/h 28% 0.0 mm CLR
14:25 37.9 °C 17.3 °C 1012.5 hPa NE 5.8 km/h 30.9 km/h 30% 0.0 mm CLR
14:30 37.4 °C 17.4 °C 1012.5 hPa ENE 15.6 km/h 29.8 km/h 31% 0.0 mm CLR
14:35 37.0 °C 17.6 °C 1012.4 hPa NE 15.6 km/h 14.8 km/h 32% 0.0 mm CLR
14:40 37.0 °C 17.6 °C 1012.4 hPa NE 17.2 km/h 29.6 km/h 32% 0.0 mm CLR
14:45 37.1 °C 17.7 °C 1012.4 hPa NE 17.2 km/h 27.8 km/h 32% 0.0 mm CLR
14:50 37.2 °C 17.7 °C 1012.3 hPa East 13.7 km/h 25.9 km/h 32% 0.0 mm CLR
14:55 36.9 °C 18.4 °C 1012.3 hPa ENE 13.7 km/h 23.7 km/h 34% 0.0 mm CLR
15:00 36.8 °C 18.4 °C 1012.3 hPa NE 18.3 km/h 27.0 km/h 34% 0.0 mm CLR
15:05 36.5 °C 18.6 °C 1012.4 hPa NE 18.3 km/h 33.3 km/h 35% 0.0 mm CLR
15:10 36.2 °C 18.3 °C 1012.4 hPa NE 19.0 km/h 27.8 km/h 35% 0.0 mm CLR
15:15 36.1 °C 18.7 °C 1012.4 hPa NE 19.0 km/h 27.8 km/h 36% 0.0 mm CLR
15:20 36.2 °C 18.8 °C 1012.4 hPa ENE 17.2 km/h 20.4 km/h 36% 0.0 mm CLR
15:25 36.1 °C 18.7 °C 1012.4 hPa ENE 17.2 km/h 29.6 km/h 36% 0.0 mm CLR
15:30 35.9 °C 18.9 °C 1012.4 hPa NE 18.0 km/h 24.1 km/h 37% 0.0 mm CLR
15:35 36.1 °C 19.1 °C 1012.3 hPa NE 18.0 km/h 24.1 km/h 37% 0.0 mm CLR
15:40 36.1 °C 19.1 °C 1012.3 hPa East 14.8 km/h 27.8 km/h 37% 0.0 mm CLR
15:45 35.9 °C 18.9 °C 1012.3 hPa NE 14.8 km/h 25.9 km/h 37% 0.0 mm CLR
15:50 35.8 °C 18.8 °C 1012.3 hPa NE 16.1 km/h 24.1 km/h 37% 0.0 mm CLR
15:55 35.8 °C 18.8 °C 1012.3 hPa ENE 16.1 km/h 29.8 km/h 37% 0.0 mm CLR
16:00 35.4 °C 18.9 °C 1012.3 hPa ENE 19.0 km/h 29.6 km/h 38% 0.0 mm CLR
16:05 35.4 °C 19.3 °C 1012.3 hPa ENE 19.0 km/h 24.1 km/h 39% 0.0 mm CLR
16:10 35.3 °C 18.8 °C 1012.3 hPa NE 20.1 km/h 33.5 km/h 38% 0.0 mm CLR
16:15 35.3 °C 19.2 °C 1012.3 hPa North 20.1 km/h 24.1 km/h 39% 0.0 mm CLR
16:20 35.2 °C 19.2 °C 1012.3 hPa ENE 18.3 km/h 27.8 km/h 39% 0.0 mm CLR
16:25 35.2 °C 18.7 °C 1012.3 hPa ENE 18.3 km/h 33.3 km/h 38% 0.0 mm CLR
16:30 34.8 °C 18.8 °C 1012.3 hPa NE 20.9 km/h 33.3 km/h 39% 0.0 mm CLR
16:35 34.8 °C 18.8 °C 1012.2 hPa ESE 20.9 km/h 27.8 km/h 39% 0.0 mm CLR
16:40 34.9 °C 18.5 °C 1012.2 hPa NE 19.0 km/h 33.3 km/h 38% 0.0 mm CLR
16:45 34.7 °C 18.7 °C 1012.2 hPa NNE 19.0 km/h 33.3 km/h 39% 0.0 mm CLR
16:50 34.7 °C 18.7 °C 1012.2 hPa ENE 20.9 km/h 33.3 km/h 39% 0.0 mm CLR
16:55 34.6 °C 18.2 °C 1012.2 hPa ENE 20.9 km/h 33.3 km/h 38% 0.0 mm CLR
17:00 34.5 °C 18.1 °C 1012.2 hPa North 21.7 km/h 29.6 km/h 38% 0.0 mm CLR
17:05 34.5 °C 18.6 °C 1012.0 hPa ENE 21.7 km/h 29.8 km/h 39% 0.0 mm CLR
17:10 34.6 °C 18.2 °C 1012.0 hPa NE 20.9 km/h 29.6 km/h 38% 0.0 mm CLR
17:15 34.5 °C 18.6 °C 1012.0 hPa NNE 20.9 km/h 25.9 km/h 39% 0.0 mm CLR
17:20 34.5 °C 18.1 °C 1011.9 hPa ENE 19.8 km/h 24.1 km/h 38% 0.0 mm CLR
17:25 34.6 °C 18.2 °C 1011.9 hPa ENE 19.8 km/h 24.1 km/h 38% 0.0 mm CLR
17:30 34.6 °C 17.8 °C 1011.9 hPa ENE 16.4 km/h 29.1 km/h 37% 0.0 mm CLR
17:35 34.4 °C 18.1 °C 1011.9 hPa NE 16.4 km/h 33.3 km/h 38% 0.0 mm CLR
17:40 34.6 °C 18.2 °C 1011.9 hPa NNE 19.0 km/h 22.2 km/h 38% 0.0 mm CLR
17:45 34.5 °C 18.1 °C 1011.9 hPa NNE 19.0 km/h 31.5 km/h 38% 0.0 mm CLR
17:50 34.4 °C 18.1 °C 1011.8 hPa NE 19.0 km/h 29.6 km/h 38% 0.0 mm CLR
17:55 34.5 °C 18.1 °C 1011.8 hPa North 19.0 km/h 24.1 km/h 38% 0.0 mm CLR
18:00 34.4 °C 18.4 °C 1011.8 hPa ENE 17.2 km/h 25.9 km/h 39% 0.0 mm CLR
18:05 34.4 °C 18.4 °C 1011.8 hPa NNE 17.2 km/h 27.8 km/h 39% 0.0 mm CLR
18:10 34.2 °C 18.3 °C 1011.8 hPa ENE 16.4 km/h 22.2 km/h 39% 0.0 mm CLR
18:15 34.1 °C 18.2 °C 1011.8 hPa NE 16.4 km/h 23.3 km/h 39% 0.0 mm CLR
18:20 34.2 °C 18.3 °C 1011.8 hPa ENE 15.6 km/h 20.4 km/h 39% 0.0 mm CLR
18:25 34.2 °C 18.3 °C 1011.8 hPa ENE 15.6 km/h 22.2 km/h 39% 0.0 mm CLR
18:30 34.3 °C 18.3 °C 1011.8 hPa NE 14.0 km/h 22.5 km/h 39% 0.0 mm CLR
18:35 34.1 °C 18.6 °C 1011.7 hPa ENE 14.0 km/h 24.5 km/h 40% 0.0 mm CLR
18:40 34.1 °C 18.6 °C 1011.7 hPa East 17.2 km/h 25.9 km/h 40% 0.0 mm CLR
18:45 34.0 °C 18.5 °C 1011.7 hPa East 17.2 km/h 20.4 km/h 40% 0.0 mm CLR
18:50 34.1 °C 18.6 °C 1011.6 hPa NNE 15.6 km/h 20.4 km/h 40% 0.0 mm CLR
18:55 34.2 °C 18.3 °C 1011.6 hPa ENE 15.6 km/h 24.1 km/h 39% 0.0 mm CLR
19:00 34.1 °C 18.2 °C 1011.6 hPa NE 15.6 km/h 25.9 km/h 39% 0.0 mm CLR
19:05 34.0 °C 18.5 °C 1011.5 hPa NE 15.6 km/h 21.7 km/h 40% 0.0 mm CLR
19:10 34.1 °C 18.2 °C 1011.5 hPa North 15.6 km/h 20.4 km/h 39% 0.0 mm CLR
19:15 33.9 °C 18.4 °C 1011.5 hPa ENE 15.6 km/h 22.2 km/h 40% 0.0 mm CLR
19:20 33.9 °C 18.4 °C 1011.5 hPa NNE 15.6 km/h 18.5 km/h 40% 0.0 mm CLR
19:25 33.8 °C 18.3 °C 1011.5 hPa NNE 15.6 km/h 22.2 km/h 40% 0.0 mm CLR
19:30 33.7 °C 18.6 °C 1011.5 hPa NE 16.1 km/h 22.2 km/h 41% 0.0 mm CLR
19:35 33.6 °C 18.6 °C 1011.5 hPa ENE 16.1 km/h 22.2 km/h 41% 0.0 mm CLR
19:40 33.6 °C 18.9 °C 1011.5 hPa ENE 14.8 km/h 18.5 km/h 42% 0.0 mm CLR
19:45 33.4 °C 18.7 °C 1011.5 hPa North 14.8 km/h 24.1 km/h 42% 0.0 mm CLR
19:50 33.4 °C 19.1 °C 1011.5 hPa East 14.0 km/h 22.2 km/h 43% 0.0 mm CLR
19:55 33.2 °C 19.3 °C 1011.5 hPa NE 14.0 km/h 16.7 km/h 44% 0.0 mm CLR
20:00 33.1 °C 19.2 °C 1011.5 hPa NE 14.0 km/h 24.1 km/h 44% 0.0 mm CLR
20:05 32.8 °C 19.3 °C 1011.5 hPa NNE 14.0 km/h 25.9 km/h 45% 0.0 mm CLR
20:10 32.6 °C 19.8 °C 1011.5 hPa NE 17.2 km/h 21.7 km/h 47% 0.0 mm CLR
20:15 32.3 °C 19.9 °C 1011.5 hPa NNE 17.2 km/h 22.2 km/h 48% 0.0 mm CLR
20:20 31.9 °C 19.8 °C 1011.7 hPa NE 17.2 km/h 27.8 km/h 49% 0.0 mm CLR
20:25 31.7 °C 20.0 °C 1011.7 hPa NE 17.2 km/h 24.1 km/h 50% 0.0 mm CLR
20:30 31.6 °C 19.9 °C 1011.7 hPa NNE 17.2 km/h 22.5 km/h 50% 0.0 mm CLR
20:35 31.4 °C 19.7 °C 1011.8 hPa NNE 17.2 km/h 18.5 km/h 50% 0.0 mm CLR
20:40 31.2 °C 19.6 °C 1011.8 hPa NNE 16.1 km/h 18.5 km/h 50% 0.0 mm CLR
20:45 31.1 °C 19.1 °C 1011.8 hPa NE 16.1 km/h 24.1 km/h 49% 0.0 mm CLR
20:50 30.9 °C 18.9 °C 1011.9 hPa NE 16.4 km/h 22.5 km/h 49% 0.0 mm CLR
20:55 30.9 °C 18.6 °C 1011.9 hPa NE 16.4 km/h 20.4 km/h 48% 0.0 mm CLR
21:00 30.9 °C 18.3 °C 1011.9 hPa NNE 13.7 km/h 20.4 km/h 47% 0.0 mm CLR
21:05 30.9 °C 18.3 °C 1011.9 hPa NNW 13.7 km/h 14.8 km/h 47% 0.0 mm CLR
21:10 30.8 °C 17.8 °C 1011.9 hPa NNE 11.9 km/h 20.4 km/h 46% 0.0 mm CLR
21:15 30.8 °C 18.2 °C 1011.9 hPa NE 11.9 km/h 14.8 km/h 47% 0.0 mm CLR
21:20 30.7 °C 18.1 °C 1012.0 hPa NNE 13.0 km/h 14.8 km/h 47% 0.0 mm CLR
21:25 30.6 °C 18.0 °C 1012.0 hPa NE 13.0 km/h 20.4 km/h 47% 0.0 mm CLR
21:30 30.4 °C 18.2 °C 1012.0 hPa NE 11.9 km/h 18.5 km/h 48% 0.0 mm CLR
21:35 30.3 °C 18.7 °C 1012.0 hPa ENE 11.9 km/h 21.7 km/h 50% 0.0 mm CLR
21:38 30.3 °C 19.3 °C 1012.0 hPa NE 11.9 km/h 19.8 km/h 52% 0.0 mm CLR
Murcia-Puente Tocinos, España
Compliments of Weather Underground - 2.75 mb

La estación de MeteoMurcia.com, publica sus datos en los siguientes proyectos:

Weather Underground PWS IMURCIAP2 Meteoclimatic www.awekas.at

W3Counter
Web Analytics